Pagina principale
METAR-TAF:

METAR-TAF

Aeroporti :

Gioia del Colle, Italia

Aeroporto di Gioia del Colle

latitudine: 40-46N, longitudine: 016-56E, altezza: 345 m

Osservazione

Il bollettino è stato emesso 43 minuti fa, alle 12:55 UTC
Vento 8 kt da sud/sud-ovest
Temperature 24°C
Umidità 34%
Pressione 1011 hPa
Visibilità 10 km o più
Nubi sparse ad un'altezza di 3000 ft

METAR: LIBV 191255Z 20008KT 9999 SCT030 24/07 Q1011 RMK BKN VIS MIN 9999 WIND THR32 22010KT WIND THR14 20009KT BLU

Ora: 15:38 (13:38 UTC)

Previsione

Il bollettino è stato emesso 2 ore e 38 minuti fa, alle 11:00 UTC
Previsione valida dal 19 alle 12 UTC al 19 alle 21 UTC
Vento 15 kt da ovest/sud-ovest
Visibilità 10 km o più
nessuna nube inferiore a 1500 m e nessun cumulonembo
Temporaneamente
dal 19 alle 12 UTC al 19 alle 16 UTC
Visibilità 10 km o più
Nubi sparse ad un'altezza di 2500 ft
Nubi sparse ad un'altezza di 4500 ft

TAF: LIBV 191100Z 1912/1921 25015KT CAVOK TEMPO 1912/1916 9999 SCT025 SCT045

Osservazioni e previsioni meteorologiche di più di 4000 aeroporti (messaggi METAR e TAF).

Le stazioni disponibili sono rappresentate dai dischi gialli e rossi sulla carta.

Puntare il mouse per vedere il nome della stazione.

Clicca sopra per visualizzare le osservazioni e previsioni meteorologiche.

Per cambiare la mappa : fare clic sui pulsanti verdi con una croce nera per ingrandire, il pulsante verde con un trattino per diminuire, o sulla freccia verde per le mappe adiacenti.


METAR-TAF: